deformed-offering
Saratoga-Weather Station Historical Data
 
Daily Summary for September 17, 2021 Units:  English    Metric   Both
Daily Weekly Monthly Yearly
  Current: High: Low: Average:
Temperature: 59.2 °F 61.6 °F 56.9 °F 58.4 °F
Dew Point: 52.3 °F 55.2 °F 51.5 °F 52.7 °F
Humidity: 78% 84% 78% 82%
Wind Speed: 1.2mph 3.7mph 0mph 1.2mph
Wind Gust: 5mph 7mph - -
WindNE - - ENE
Pressure: 29.94 in 29.94 in 29.86 in -
Precipitation: 0.00 in      
 
 
Tabular Data for September 17, 2021
Time Temperature Dew Point Pressure Wind Wind Speed Wind Gust Humidity Rainfall Rate (Hourly) solar
00:04 61.6 °F 55.2 °F 29.87 in NE 0.9 mph 3.5 mph 79.5% 0.00 in 0 W/m2
00:09 61.5 °F 54.9 °F 29.86 in Calm   3 mph 79% 0.00 in 0 W/m2
00:14 61.4 °F 54.8 °F 29.87 in NE 0.8 mph 2.3 mph 79% 0.00 in 0 W/m2
00:19 61.3 °F 54.7 °F 29.87 in NE 1.2 mph 3.5 mph 78.8% 0.00 in 0 W/m2
00:24 61.3 °F 54.4 °F 29.87 in NE 0.1 mph 3.5 mph 78% 0.00 in 0 W/m2
00:29 61.3 °F 54.4 °F 29.87 in NE 0.1 mph 2 mph 78% 0.00 in 0 W/m2
00:34 61.3 °F 54.4 °F 29.88 in NE 1.5 mph 3.5 mph 78% 0.00 in 0 W/m2
00:39 61.2 °F 54.3 °F 29.88 in NE 1.1 mph 3.5 mph 78% 0.00 in 0 W/m2
00:44 61.2 °F 54.3 °F 29.88 in Calm   3 mph 78% 0.00 in 0 W/m2
00:49 61.2 °F 54.3 °F 29.87 in NE 1.4 mph 4 mph 78% 0.00 in 0 W/m2
00:54 61.1 °F 54.3 °F 29.87 in NE 1.3 mph 4 mph 78.2% 0.00 in 0 W/m2
00:59 61 °F 54.4 °F 29.87 in NE 2.1 mph 4 mph 79% 0.00 in 0 W/m2
01:04 60.8 °F 54.2 °F 29.87 in NE 1.8 mph 5 mph 79% 0.00 in 0 W/m2
01:09 60.7 °F 53.8 °F 29.87 in NE 2.6 mph 6 mph 78% 0.00 in 0 W/m2
01:14 60.4 °F 53.8 °F 29.87 in East 2.6 mph 6 mph 78.7% 0.00 in 0 W/m2
01:19 60.1 °F 53.8 °F 29.87 in East 2.2 mph 6 mph 79.6% 0.00 in 0 W/m2
01:24 59.9 °F 53.7 °F 29.87 in East 1.9 mph 5 mph 80% 0.00 in 0 W/m2
01:29 59.7 °F 53.5 °F 29.88 in East 2.1 mph 5 mph 80% 0.00 in 0 W/m2
01:34 59.5 °F 53.5 °F 29.88 in East 2 mph 6 mph 80.5% 0.00 in 0 W/m2
01:39 59.3 °F 53.5 °F 29.88 in East 1.9 mph 6 mph 81% 0.00 in 0 W/m2
01:44 59.1 °F 53.3 °F 29.88 in East 0.3 mph 5 mph 81% 0.00 in 0 W/m2
01:49 59 °F 53.2 °F 29.88 in East 0.1 mph 2.3 mph 81% 0.00 in 0 W/m2
01:54 58.9 °F 53.2 °F 29.87 in Calm   1 mph 81.2% 0.00 in 0 W/m2
01:59 58.9 °F 53.4 °F 29.87 in East 0.1 mph 1.2 mph 82% 0.00 in 0 W/m2
02:04 58.9 °F 53.4 °F 29.87 in East 0.4 mph 3 mph 82% 0.00 in 0 W/m2
02:09 58.9 °F 53.4 °F 29.87 in East 1.6 mph 3.5 mph 82% 0.00 in 0 W/m2
02:14 58.8 °F 53.3 °F 29.87 in East 0.8 mph 3.5 mph 82% 0.00 in 0 W/m2
02:19 58.8 °F 53.3 °F 29.87 in East 0.8 mph 5 mph 82% 0.00 in 0 W/m2
02:24 58.7 °F 53.2 °F 29.87 in ENE 0.6 mph 5 mph 82% 0.00 in 0 W/m2
02:29 58.7 °F 53.2 °F 29.87 in ENE 0.1 mph 3 mph 82% 0.00 in 0 W/m2
02:34 58.7 °F 53.2 °F 29.87 in ENE 0.8 mph 3.5 mph 82% 0.00 in 0 W/m2
02:39 58.7 °F 53.2 °F 29.87 in ENE 0.8 mph 3 mph 82% 0.00 in 0 W/m2
02:44 58.7 °F 53.2 °F 29.87 in ENE 2.3 mph 5 mph 82% 0.00 in 0 W/m2
02:49 58.7 °F 53.2 °F 29.87 in ENE 1.2 mph 5 mph 82% 0.00 in 0 W/m2
02:54 58.7 °F 53.2 °F 29.87 in ENE 2.1 mph 6 mph 82% 0.00 in 0 W/m2
02:59 58.6 °F 53.1 °F 29.86 in ENE 1 mph 6 mph 82% 0.00 in 0 W/m2
03:04 58.6 °F 53.1 °F 29.86 in ENE 2.1 mph 5 mph 82% 0.00 in 0 W/m2
03:09 58.4 °F 52.9 °F 29.86 in ENE 1.6 mph 6 mph 82% 0.00 in 0 W/m2
03:14 58.3 °F 52.8 °F 29.86 in ENE 1.8 mph 6 mph 82% 0.00 in 0 W/m2
03:19 58.3 °F 52.8 °F 29.86 in ENE 1.7 mph 4 mph 82% 0.00 in 0 W/m2
03:24 58.3 °F 52.8 °F 29.86 in ENE 1.5 mph 5 mph 82% 0.00 in 0 W/m2
03:29 58.2 °F 52.7 °F 29.86 in ENE 1 mph 5 mph 82% 0.00 in 0 W/m2
03:34 58.1 °F 52.6 °F 29.86 in ENE 1 mph 3.5 mph 82% 0.00 in 0 W/m2
03:39 58.1 °F 52.6 °F 29.86 in ENE 0.3 mph 3 mph 82% 0.00 in 0 W/m2
03:44 58.1 °F 52.6 °F 29.86 in ENE 0.6 mph 2.3 mph 82% 0.00 in 0 W/m2
03:49 58.1 °F 52.6 °F 29.86 in ENE 0.5 mph 2.3 mph 82% 0.00 in 0 W/m2
03:54 58.1 °F 52.6 °F 29.86 in ENE 0.8 mph 2.3 mph 82% 0.00 in 0 W/m2
03:59 58 °F 52.5 °F 29.86 in ENE 0.7 mph 2.3 mph 82% 0.00 in 0 W/m2
04:04 58 °F 52.5 °F 29.86 in ENE 1.1 mph 3.5 mph 82% 0.00 in 0 W/m2
04:09 58 °F 52.5 °F 29.86 in ENE 0.9 mph 3.5 mph 82% 0.00 in 0 W/m2
04:14 58 °F 52.5 °F 29.86 in ENE 0.8 mph 3.5 mph 82% 0.00 in 0 W/m2
04:19 58 °F 52.5 °F 29.86 in ENE 1.5 mph 5 mph 82% 0.00 in 0 W/m2
04:24 58 °F 52.5 °F 29.86 in ENE 1.7 mph 5 mph 82% 0.00 in 0 W/m2
04:29 58 °F 52.5 °F 29.86 in ENE 1.4 mph 5 mph 82% 0.00 in 0 W/m2
04:34 57.8 °F 52.3 °F 29.86 in ENE 1.7 mph 4 mph 82% 0.00 in 0 W/m2
04:39 57.8 °F 52.3 °F 29.86 in ENE 1.1 mph 4 mph 82% 0.00 in 0 W/m2
04:44 57.6 °F 52.1 °F 29.86 in ENE 1.2 mph 3.5 mph 82% 0.00 in 0 W/m2
04:49 57.6 °F 52.1 °F 29.87 in ENE 1.9 mph 5 mph 82% 0.00 in 0 W/m2
04:54 57.5 °F 52 °F 29.87 in ENE 1.1 mph 5 mph 82% 0.00 in 0 W/m2
04:59 57.5 °F 52 °F 29.87 in ENE 2.1 mph 5 mph 82% 0.00 in 0 W/m2
05:04 57.4 °F 51.9 °F 29.88 in ENE 1.2 mph 5 mph 82% 0.00 in 0 W/m2
05:09 57.3 °F 51.9 °F 29.88 in East 2 mph 6 mph 82% 0.00 in 0 W/m2
05:14 57.2 °F 51.8 °F 29.88 in East 1.6 mph 6 mph 82% 0.00 in 0 W/m2
05:19 57.2 °F 51.8 °F 29.88 in East 2.4 mph 6 mph 82% 0.00 in 0 W/m2
05:24 57.1 °F 51.7 °F 29.88 in East 0.4 mph 6 mph 82% 0.00 in 0 W/m2
05:29 57 °F 51.6 °F 29.88 in East 0.5 mph 2.3 mph 82% 0.00 in 0 W/m2
05:34 57 °F 51.6 °F 29.89 in East 0.3 mph 2.3 mph 82% 0.00 in 0 W/m2
05:39 57 °F 51.6 °F 29.89 in Calm   2 mph 82% 0.00 in 0 W/m2
05:44 57 °F 51.6 °F 29.89 in Calm     82% 0.00 in 0 W/m2
05:49 57.1 °F 51.8 °F 29.89 in Calm     82.5% 0.00 in 0 W/m2
05:54 57 °F 51.8 °F 29.89 in Calm     82.5% 0.00 in 0 W/m2
05:59 57 °F 51.7 °F 29.90 in Calm   1 mph 82.5% 0.00 in 0 W/m2
06:04 57 °F 51.8 °F 29.90 in East 0.4 mph 2.3 mph 82.7% 0.00 in 0 W/m2
06:09 57 °F 51.6 °F 29.90 in East 0.9 mph 3.5 mph 82% 0.00 in 0 W/m2
06:14 57 °F 51.6 °F 29.90 in East 1.7 mph 3.5 mph 82% 0.00 in 0 W/m2
06:19 57 °F 51.6 °F 29.90 in East 1.1 mph 3.5 mph 82% 0.00 in 0 W/m2
06:24 57 °F 51.6 °F 29.90 in East 1.4 mph 3.5 mph 82% 0.00 in 0 W/m2
06:29 56.9 °F 51.5 °F 29.90 in East 0.4 mph 3 mph 82% 0.00 in 0 W/m2
06:34 56.9 °F 51.7 °F 29.91 in East 0.3 mph 2.3 mph 82.8% 0.00 in 0 W/m2
06:39 56.9 °F 51.8 °F 29.91 in East 0.2 mph 2 mph 83% 0.00 in 0 W/m2
06:44 57 °F 51.9 °F 29.91 in East 0.5 mph 2.3 mph 83.2% 0.00 in 0 W/m2
06:49 57 °F 52.2 °F 29.91 in East 0.6 mph 2.3 mph 84% 0.00 in 0 W/m2
06:54 57 °F 52.2 °F 29.91 in East 0.9 mph 3.5 mph 84% 0.00 in 0 W/m2
06:59 57 °F 52.2 °F 29.91 in Calm   3 mph 84% 0.00 in 0 W/m2
07:04 57 °F 52.2 °F 29.91 in East 0.1 mph 1.2 mph 84% 0.00 in 0 W/m2
07:09 57 °F 52.2 °F 29.92 in Calm   1 mph 84% 0.00 in 5 W/m2
07:14 57 °F 52.2 °F 29.92 in East 1.1 mph 3.5 mph 84% 0.00 in 9 W/m2
07:19 57 °F 52.2 °F 29.93 in East 1 mph 3.5 mph 84% 0.00 in 12 W/m2
07:24 57.1 °F 52.3 °F 29.93 in East 1.9 mph 6 mph 84% 0.00 in 23 W/m2
07:29 57.2 °F 52.4 °F 29.93 in East 0.7 mph 6 mph 84% 0.00 in 25 W/m2
07:34 57.2 °F 52.4 °F 29.93 in East 0.2 mph 2.3 mph 84% 0.00 in 37 W/m2
07:39 57.2 °F 52.4 °F 29.93 in East 0.2 mph 2.3 mph 84% 0.00 in 37 W/m2
07:44 57.3 °F 52.5 °F 29.93 in East 0.5 mph 3 mph 84% 0.00 in 37 W/m2
07:49 57.2 °F 52.2 °F 29.93 in East 0.8 mph 3.5 mph 83.2% 0.00 in 53 W/m2
07:54 57.2 °F 52.1 °F 29.93 in East 0.5 mph 3 mph 83% 0.00 in 69 W/m2
07:59 57.2 °F 52.1 °F 29.93 in East 0.6 mph 2.3 mph 83% 0.00 in 83 W/m2
08:04 57.3 °F 52.2 °F 29.93 in East 1.4 mph 3.5 mph 83% 0.00 in 91 W/m2
08:09 57.4 °F 52.3 °F 29.93 in East 1.1 mph 3 mph 83% 0.00 in 106 W/m2
08:14 57.5 °F 52.4 °F 29.93 in East 1.8 mph 4 mph 83% 0.00 in 158 W/m2
08:19 57.6 °F 52.4 °F 29.93 in East 1.8 mph 4 mph 82.8% 0.00 in 216 W/m2
08:24 57.8 °F 52.7 °F 29.93 in ENE 2.3 mph 5 mph 83% 0.00 in 382 W/m2
08:29 58 °F 52.5 °F 29.93 in ENE 2.3 mph 5 mph 82.2% 0.00 in 405 W/m2
08:34 58 °F 52.5 °F 29.93 in East 3.7 mph 7 mph 82% 0.00 in 399 W/m2
08:39 58.2 °F 52.6 °F 29.93 in East 3.5 mph 7 mph 81.7% 0.00 in 355 W/m2
08:44 58.4 °F 52.6 °F 29.93 in East 2.8 mph 7 mph 80.8% 0.00 in 333 W/m2
08:49 58.6 °F 52.4 °F 29.94 in ENE 3.6 mph 7 mph 79.9% 0.00 in 343 W/m2
08:54 58.6 °F 52.1 °F 29.94 in NE 1.8 mph 7 mph 79% 0.00 in 348 W/m2
08:59 58.7 °F 52.2 °F 29.94 in NE 1.7 mph 4 mph 79% 0.00 in 357 W/m2
09:04 58.8 °F 52.3 °F 29.94 in East 0.9 mph 4 mph 79% 0.00 in 370 W/m2
09:09 59 °F 52.5 °F 29.94 in East 1.4 mph 3.5 mph 79% 0.00 in 384 W/m2
09:14 59.1 °F 52.6 °F 29.94 in East 2.2 mph 5 mph 79% 0.00 in 398 W/m2
09:19 59.2 °F 52.4 °F 29.94 in ENE 1.8 mph 5 mph 78.2% 0.00 in 410 W/m2
09:24 59.2 °F 52.3 °F 29.94 in NE 1.2 mph 5 mph 78% 0.00 in 419 W/m2
Saratoga, California, USA
Compliments of Weather Underground - 2 mb

WU-history PHP script courtesy of Juneau County Weather and modified for WU/TWC API use by Saratoga-weather.org

This script set is available on GitHub.

deformed-offering